createdAt,value
2023-04-18T00:00:48.694Z,82.88
2023-04-18T00:03:20.159Z,82.94
2023-04-18T00:05:49.310Z,82.87
2023-04-18T00:08:17.668Z,82.88
2023-04-18T00:10:46.856Z,82.69
2023-04-18T00:13:18.860Z,82.74
2023-04-18T00:15:47.495Z,83.50
2023-04-18T00:18:21.443Z,83.06
2023-04-18T00:20:49.792Z,83.04
2023-04-18T00:23:18.062Z,83.10
2023-04-18T00:25:46.268Z,83.04
2023-04-18T00:28:14.586Z,83.01
2023-04-18T00:30:43.069Z,83.09
2023-04-18T00:33:11.919Z,84.28
2023-04-18T00:35:40.573Z,83.65
2023-04-18T00:38:08.967Z,83.58
2023-04-18T00:40:38.008Z,84.13
2023-04-18T00:43:07.775Z,83.79
2023-04-18T00:45:36.526Z,83.71
2023-04-18T00:48:07.786Z,83.86
2023-04-18T00:50:37.037Z,83.83
2023-04-18T00:53:05.371Z,83.84
2023-04-18T00:55:33.874Z,85.09
2023-04-18T00:58:02.450Z,84.48
2023-04-18T01:00:30.989Z,84.08
2023-04-18T01:02:59.698Z,84.59
2023-04-18T01:05:28.268Z,84.42
2023-04-18T01:08:00.277Z,84.80
2023-04-18T01:10:29.577Z,84.54
2023-04-18T01:13:18.221Z,84.06
2023-04-18T01:15:48.965Z,84.43
2023-04-18T01:18:20.184Z,85.27
2023-04-18T01:22:01.820Z,84.78
2023-04-18T01:24:31.395Z,84.47
2023-04-18T01:27:01.205Z,84.49
2023-04-18T01:29:29.738Z,84.57
2023-04-18T01:31:58.213Z,84.54
2023-04-18T01:34:26.563Z,84.60
2023-04-18T01:36:54.874Z,84.61
2023-04-18T01:39:23.348Z,84.67
2023-04-18T01:41:51.541Z,84.49
2023-04-18T01:44:19.907Z,84.71
2023-04-18T01:46:48.376Z,84.59
2023-04-18T01:49:16.895Z,84.65
2023-04-18T01:51:45.116Z,84.60
2023-04-18T01:54:13.610Z,84.52
2023-04-18T01:56:42.138Z,84.65
2023-04-18T01:59:10.442Z,84.53
2023-04-18T02:01:38.684Z,84.52
2023-04-18T02:04:06.975Z,84.80
2023-04-18T02:06:35.408Z,84.51
2023-04-18T02:09:03.823Z,84.41
2023-04-18T02:11:32.158Z,84.49
2023-04-18T02:14:00.730Z,84.58
2023-04-18T02:16:29.211Z,84.89
2023-04-18T02:18:57.503Z,84.70
2023-04-18T02:21:25.759Z,84.79
2023-04-18T02:23:54.050Z,84.75
2023-04-18T02:26:22.364Z,84.88
2023-04-18T02:28:50.772Z,85.03
2023-04-18T02:31:19.224Z,84.98
2023-04-18T02:33:47.786Z,85.18
2023-04-18T02:36:16.323Z,85.91
2023-04-18T02:38:44.954Z,85.59
2023-04-18T02:41:17.079Z,85.50
2023-04-18T02:43:45.477Z,85.64
2023-04-18T02:46:13.821Z,85.51
2023-04-18T02:48:42.154Z,85.70
2023-04-18T02:51:10.529Z,85.71
2023-04-18T02:53:38.857Z,86.07
2023-04-18T02:56:08.254Z,85.77
2023-04-18T02:58:36.729Z,86.29
2023-04-18T03:01:05.125Z,86.20
2023-04-18T03:03:33.632Z,86.30
2023-04-18T03:06:02.326Z,86.27
2023-04-18T03:08:30.658Z,86.65
2023-04-18T03:10:59.213Z,86.34
2023-04-18T03:13:27.703Z,86.73
2023-04-18T03:15:56.473Z,86.81
2023-04-18T03:18:25.628Z,86.77
2023-04-18T03:20:53.919Z,86.77
2023-04-18T03:23:22.188Z,87.64
2023-04-18T03:25:51.138Z,87.79
2023-04-18T03:28:19.903Z,87.56
2023-04-18T03:30:48.224Z,87.34
2023-04-18T03:33:17.060Z,87.32
2023-04-18T03:35:45.401Z,87.10
2023-04-18T03:38:13.768Z,86.98
2023-04-18T03:40:43.862Z,86.84
2023-04-18T03:43:12.156Z,87.07
2023-04-18T03:45:40.689Z,87.70
2023-04-18T03:48:08.958Z,87.43
2023-04-18T03:50:37.193Z,87.23
2023-04-18T03:53:05.489Z,87.05
2023-04-18T03:55:34.033Z,87.31
2023-04-18T03:58:02.439Z,87.24
2023-04-18T04:00:31.149Z,87.55
2023-04-18T04:02:59.923Z,87.74
2023-04-18T04:05:28.830Z,87.41
2023-04-18T04:07:57.180Z,87.39
2023-04-18T04:10:25.585Z,87.41
2023-04-18T04:12:53.885Z,87.14
2023-04-18T04:15:22.196Z,87.18
2023-04-18T04:17:51.629Z,87.51
2023-04-18T04:20:23.668Z,87.41
2023-04-18T04:22:52.247Z,87.14
2023-04-18T04:25:23.304Z,87.50
2023-04-18T04:27:53.009Z,87.18
2023-04-18T04:30:21.639Z,87.08
2023-04-18T04:32:49.992Z,86.92
2023-04-18T04:35:18.437Z,86.94
2023-04-18T04:37:46.955Z,86.88
2023-04-18T04:40:16.945Z,86.81
2023-04-18T04:42:45.953Z,86.72
2023-04-18T04:45:14.875Z,86.72
2023-04-18T04:47:43.394Z,87.13
2023-04-18T04:50:14.955Z,87.04
2023-04-18T04:52:43.666Z,86.80
2023-04-18T04:55:12.023Z,86.58
2023-04-18T04:57:40.444Z,86.49
2023-04-18T05:00:13.144Z,86.33
2023-04-18T05:02:41.536Z,86.22
2023-04-18T05:05:10.169Z,86.00
2023-04-18T05:07:38.604Z,86.22
2023-04-18T05:10:08.124Z,85.96
2023-04-18T05:12:36.520Z,85.91
2023-04-18T05:15:06.801Z,85.77
2023-04-18T05:17:35.326Z,85.72
2023-04-18T05:20:04.408Z,85.64
2023-04-18T05:22:33.032Z,85.63
2023-04-18T05:25:01.478Z,85.64
2023-04-18T05:27:29.797Z,85.46
2023-04-18T05:29:58.138Z,85.27
2023-04-18T05:32:26.440Z,85.43
2023-04-18T05:34:55.074Z,84.99
2023-04-18T05:37:25.883Z,85.05
2023-04-18T05:39:54.172Z,84.92
2023-04-18T05:42:22.580Z,85.15
2023-04-18T05:44:51.265Z,84.93
2023-04-18T05:47:19.711Z,84.73
2023-04-18T05:49:48.026Z,84.70
2023-04-18T05:52:16.397Z,84.76
2023-04-18T05:54:44.850Z,84.41
2023-04-18T05:57:13.225Z,84.26
2023-04-18T05:59:42.144Z,84.17
2023-04-18T06:02:12.843Z,84.21
2023-04-18T06:04:42.168Z,84.09
2023-04-18T06:07:11.281Z,83.98
2023-04-18T06:09:39.551Z,83.96
2023-04-18T06:12:08.092Z,83.87
2023-04-18T06:14:37.807Z,83.50
2023-04-18T06:17:07.703Z,83.87
2023-04-18T06:19:36.149Z,83.68
2023-04-18T06:22:04.725Z,83.63
2023-04-18T06:24:33.315Z,83.33
2023-04-18T06:27:02.473Z,83.35
2023-04-18T06:29:32.636Z,83.36
2023-04-18T06:32:01.036Z,82.88
2023-04-18T06:34:29.675Z,82.86
2023-04-18T06:36:57.930Z,82.34
2023-04-18T06:39:27.334Z,82.66
2023-04-18T06:41:56.491Z,82.75
2023-04-18T06:44:25.592Z,82.51
2023-04-18T06:46:54.092Z,82.86
2023-04-18T06:49:26.425Z,82.54
2023-04-18T06:51:55.654Z,82.53
2023-04-18T06:54:24.188Z,82.40
2023-04-18T06:56:53.108Z,82.50
2023-04-18T06:59:22.833Z,82.34
2023-04-18T07:01:51.579Z,82.13
2023-04-18T07:04:20.192Z,81.44
2023-04-18T07:06:48.916Z,81.12
2023-04-18T07:09:17.347Z,81.27
2023-04-18T07:11:45.726Z,80.98
2023-04-18T07:14:14.722Z,81.05
2023-04-18T07:16:43.461Z,80.82
2023-04-18T07:19:11.737Z,81.07
2023-04-18T07:21:42.906Z,81.11
2023-04-18T07:24:12.228Z,80.81
2023-04-18T07:26:41.350Z,81.03
2023-04-18T07:29:09.728Z,81.00
2023-04-18T07:31:38.223Z,80.80
2023-04-18T07:34:08.391Z,80.28
2023-04-18T07:36:37.628Z,80.41
2023-04-18T07:39:06.235Z,79.58
2023-04-18T07:41:34.871Z,79.26
2023-04-18T07:44:03.442Z,78.88
2023-04-18T07:46:33.384Z,78.30
2023-04-18T07:49:01.829Z,78.74
2023-04-18T07:51:31.169Z,79.25
2023-04-18T07:53:59.717Z,79.38
2023-04-18T07:56:28.534Z,79.50
2023-04-18T07:58:56.813Z,79.48
2023-04-18T08:01:26.630Z,78.76
2023-04-18T08:03:57.240Z,78.33
2023-04-18T08:06:26.496Z,78.52
2023-04-18T08:08:54.740Z,78.19
2023-04-18T08:11:23.245Z,78.39
2023-04-18T08:13:51.900Z,78.22
2023-04-18T08:16:20.504Z,78.52
2023-04-18T08:18:48.925Z,77.15
2023-04-18T08:21:17.461Z,76.39
2023-04-18T08:23:46.835Z,75.32
2023-04-18T08:26:15.444Z,74.98
2023-04-18T08:28:46.346Z,74.73
2023-04-18T08:31:15.792Z,75.15
2023-04-18T08:33:44.204Z,74.96
2023-04-18T08:36:13.100Z,75.51
2023-04-18T08:38:41.733Z,75.13
2023-04-18T08:41:09.984Z,74.66
2023-04-18T08:43:39.146Z,74.47
2023-04-18T08:46:08.459Z,74.39
2023-04-18T08:48:36.780Z,73.40
2023-04-18T08:51:05.833Z,71.95
2023-04-18T08:53:34.797Z,69.90
2023-04-18T08:56:04.723Z,68.80
2023-04-18T08:58:34.173Z,69.39
2023-04-18T09:01:02.689Z,69.96
2023-04-18T09:03:41.038Z,68.06
2023-04-18T09:06:13.037Z,64.54
2023-04-18T09:08:43.214Z,64.36
2023-04-18T09:11:28.497Z,67.04
2023-04-18T09:13:58.149Z,64.14
2023-04-18T09:16:29.471Z,63.51
2023-04-18T09:19:12.196Z,64.73
2023-04-18T09:21:43.792Z,64.06
2023-04-18T09:24:23.271Z,63.73
2023-04-18T09:26:53.197Z,62.81
2023-04-18T09:29:22.137Z,63.60
2023-04-18T09:31:59.255Z,63.37
2023-04-18T09:34:28.267Z,61.80
2023-04-18T09:37:09.924Z,62.72
2023-04-18T09:39:39.170Z,62.71
2023-04-18T09:42:09.948Z,61.03
2023-04-18T09:44:39.087Z,60.62
2023-04-18T09:47:07.582Z,61.48
2023-04-18T09:49:35.863Z,60.54
2023-04-18T09:52:06.847Z,60.50
2023-04-18T09:54:39.166Z,61.37
2023-04-18T09:57:13.008Z,60.34
2023-04-18T09:59:47.170Z,57.79
2023-04-18T10:02:18.549Z,55.33
2023-04-18T10:04:47.777Z,56.19
2023-04-18T10:07:17.256Z,56.91
2023-04-18T10:09:46.771Z,57.17
2023-04-18T10:12:15.249Z,52.59
2023-04-18T10:14:43.988Z,54.05
2023-04-18T10:17:12.470Z,54.62
2023-04-18T10:19:41.396Z,53.46
2023-04-18T10:22:10.059Z,53.32
2023-04-18T10:24:48.894Z,50.44
2023-04-18T10:27:18.017Z,51.85
2023-04-18T10:29:51.132Z,52.18
2023-04-18T10:32:21.513Z,52.36
2023-04-18T10:34:52.700Z,52.08
2023-04-18T10:37:21.351Z,52.62
2023-04-18T10:39:54.031Z,51.22
2023-04-18T10:42:58.280Z,53.06
2023-04-18T10:45:28.012Z,54.01
2023-04-18T10:48:23.894Z,51.60
2023-04-18T10:51:13.470Z,50.86
2023-04-18T10:53:48.102Z,51.94
2023-04-18T10:56:16.541Z,52.97
2023-04-18T10:58:50.729Z,52.63
2023-04-18T11:01:26.805Z,52.36
2023-04-18T11:03:56.517Z,53.02
2023-04-18T11:06:26.023Z,53.75
2023-04-18T11:09:09.612Z,52.04
2023-04-18T11:11:37.992Z,50.04
2023-04-18T11:14:06.438Z,49.47
2023-04-18T11:16:35.201Z,49.38
2023-04-18T11:19:18.981Z,48.05
2023-04-18T11:21:47.356Z,48.46
2023-04-18T11:24:23.207Z,49.67
2023-04-18T11:26:55.185Z,50.13
2023-04-18T11:29:23.739Z,50.81
2023-04-18T11:31:58.372Z,50.80
2023-04-18T11:34:30.294Z,50.35
2023-04-18T11:36:59.215Z,49.44
2023-04-18T11:39:27.697Z,50.63
2023-04-18T11:41:56.671Z,51.89
2023-04-18T11:44:25.858Z,52.47
2023-04-18T11:46:54.199Z,52.81
2023-04-18T11:49:30.118Z,53.28
2023-04-18T11:51:58.541Z,53.68
2023-04-18T11:54:43.785Z,53.57
2023-04-18T11:57:23.043Z,53.35
2023-04-18T11:59:56.173Z,53.92
2023-04-18T12:02:26.388Z,54.20
2023-04-18T12:04:56.843Z,53.56
2023-04-18T12:07:36.427Z,53.72
2023-04-18T12:10:06.937Z,53.73
2023-04-18T12:12:35.731Z,54.24
2023-04-18T12:15:06.814Z,54.15
2023-04-18T12:17:36.937Z,53.77
2023-04-18T12:20:09.420Z,54.43
2023-04-18T12:22:39.393Z,54.63
2023-04-18T12:25:27.375Z,53.90
2023-04-18T12:27:57.860Z,54.69
2023-04-18T12:30:28.550Z,54.80
2023-04-18T12:32:58.650Z,54.55
2023-04-18T12:35:28.467Z,54.83
2023-04-18T12:37:58.156Z,54.36
2023-04-18T12:40:28.441Z,54.85
2023-04-18T12:42:56.854Z,54.80
2023-04-18T12:45:25.432Z,55.23
2023-04-18T12:47:54.040Z,55.13
2023-04-18T12:50:23.969Z,54.79
2023-04-18T12:52:53.775Z,55.41
2023-04-18T12:55:22.364Z,55.29
2023-04-18T12:57:53.703Z,55.36
2023-04-18T13:00:23.062Z,54.87
2023-04-18T13:02:52.256Z,53.92
2023-04-18T13:05:22.276Z,53.38
2023-04-18T13:07:54.069Z,53.58
2023-04-18T13:10:27.505Z,53.71
2023-04-18T13:12:55.824Z,54.49
2023-04-18T13:15:25.435Z,54.45
2023-04-18T13:17:56.180Z,54.24
2023-04-18T13:20:24.894Z,54.39
2023-04-18T13:22:53.356Z,54.23
2023-04-18T13:25:25.360Z,53.55
2023-04-18T13:27:53.929Z,54.42
2023-04-18T13:30:22.274Z,54.43
2023-04-18T13:32:50.786Z,54.82
2023-04-18T13:35:19.483Z,53.96
2023-04-18T13:37:47.805Z,53.73
2023-04-18T13:40:17.437Z,54.01
2023-04-18T13:42:45.796Z,54.42
2023-04-18T13:45:14.124Z,54.33
2023-04-18T13:47:43.024Z,53.72
2023-04-18T13:50:11.955Z,52.52
2023-04-18T13:52:40.244Z,53.07
2023-04-18T13:55:10.408Z,53.23
2023-04-18T13:57:38.820Z,53.52
2023-04-18T14:00:13.018Z,53.79
2023-04-18T14:02:42.316Z,53.87
2023-04-18T14:05:11.389Z,54.36
2023-04-18T14:07:40.918Z,54.12
2023-04-18T14:10:10.950Z,54.18
2023-04-18T14:12:39.775Z,54.32
2023-04-18T14:15:11.741Z,54.02
2023-04-18T14:17:42.778Z,54.07
2023-04-18T14:20:15.091Z,53.42
2023-04-18T14:22:43.530Z,53.18
2023-04-18T14:25:16.448Z,53.33
2023-04-18T14:27:48.169Z,53.08
2023-04-18T14:30:16.677Z,52.30
2023-04-18T14:32:45.185Z,51.90
2023-04-18T14:35:13.866Z,52.00
2023-04-18T14:37:42.223Z,52.62
2023-04-18T14:40:12.001Z,52.39
2023-04-18T14:42:40.582Z,52.70
2023-04-18T14:45:11.086Z,52.65
2023-04-18T14:47:39.497Z,51.79
2023-04-18T14:50:11.321Z,51.67
2023-04-18T14:52:40.115Z,51.72
2023-04-18T14:55:10.321Z,52.31
2023-04-18T14:57:39.679Z,52.30
2023-04-18T15:00:10.775Z,51.25
2023-04-18T15:02:39.849Z,51.82
2023-04-18T15:05:10.735Z,51.20
2023-04-18T15:07:40.238Z,50.63
2023-04-18T15:10:11.991Z,50.48
2023-04-18T15:12:41.076Z,51.21
2023-04-18T15:15:10.777Z,51.20
2023-04-18T15:17:39.166Z,51.74
2023-04-18T15:20:09.260Z,51.86
2023-04-18T15:22:37.625Z,51.94
2023-04-18T15:25:07.689Z,52.30
2023-04-18T15:27:35.979Z,51.99
2023-04-18T15:30:07.566Z,52.00
2023-04-18T15:32:36.282Z,52.08
2023-04-18T15:35:06.636Z,51.81
2023-04-18T15:37:35.464Z,51.48
2023-04-18T15:40:05.689Z,51.83
2023-04-18T15:42:34.378Z,50.83
2023-04-18T15:45:06.004Z,51.15
2023-04-18T15:47:34.816Z,51.17
2023-04-18T15:50:03.295Z,49.74
2023-04-18T15:52:31.801Z,49.90
2023-04-18T15:55:00.411Z,50.14
2023-04-18T15:57:29.123Z,50.31
2023-04-18T15:59:58.834Z,50.28
2023-04-18T16:02:27.701Z,50.15
2023-04-18T16:04:56.120Z,50.43
2023-04-18T16:07:24.781Z,50.34
2023-04-18T16:09:53.256Z,49.54
2023-04-18T16:12:21.541Z,49.70
2023-04-18T16:14:53.064Z,49.81
2023-04-18T16:17:21.480Z,50.48
2023-04-18T16:19:49.944Z,50.43
2023-04-18T16:22:18.247Z,50.40
2023-04-18T16:24:46.955Z,50.91
2023-04-18T16:27:15.723Z,50.79
2023-04-18T16:29:44.329Z,50.33
2023-04-18T16:32:12.733Z,50.56
2023-04-18T16:34:41.241Z,50.84
2023-04-18T16:37:09.696Z,51.13
2023-04-18T16:39:38.126Z,51.37
2023-04-18T16:42:06.794Z,51.35
2023-04-18T16:44:35.190Z,51.68
2023-04-18T16:47:04.604Z,51.66
2023-04-18T16:49:33.298Z,51.67
2023-04-18T16:52:01.967Z,51.69
2023-04-18T16:54:30.783Z,51.40
2023-04-18T16:56:59.111Z,51.48
2023-04-18T16:59:27.373Z,51.62
2023-04-18T17:01:55.982Z,51.73
2023-04-18T17:04:26.308Z,51.93
2023-04-18T17:06:54.786Z,51.83
2023-04-18T17:09:23.597Z,51.97
2023-04-18T17:11:52.269Z,52.06
2023-04-18T17:14:20.858Z,52.09
2023-04-18T17:16:51.336Z,52.29
2023-04-18T17:19:21.246Z,52.43
2023-04-18T17:21:50.594Z,52.42
2023-04-18T17:24:21.731Z,52.74
2023-04-18T17:26:50.336Z,52.67
2023-04-18T17:29:21.726Z,52.86
2023-04-18T17:31:50.188Z,53.13
2023-04-18T17:34:18.649Z,52.97
2023-04-18T17:36:47.553Z,53.19
2023-04-18T17:39:16.451Z,53.25
2023-04-18T17:41:45.957Z,53.12
2023-04-18T17:44:14.379Z,53.24
2023-04-18T17:46:42.953Z,53.31
2023-04-18T17:49:11.282Z,53.35
2023-04-18T17:51:39.903Z,53.68
2023-04-18T17:54:10.012Z,53.55
2023-04-18T17:56:38.271Z,53.79
2023-04-18T17:59:07.164Z,53.96
2023-04-18T18:01:35.692Z,53.94
2023-04-18T18:04:04.371Z,54.12
2023-04-18T18:06:33.117Z,54.18
2023-04-18T18:09:01.613Z,54.24
2023-04-18T18:11:29.954Z,54.17
2023-04-18T18:13:58.990Z,54.26
2023-04-18T18:16:27.697Z,54.21
2023-04-18T18:18:56.153Z,54.32
2023-04-18T18:21:25.668Z,54.57
2023-04-18T18:23:54.281Z,54.76
2023-04-18T18:26:22.535Z,54.68
2023-04-18T18:28:51.107Z,54.83
2023-04-18T18:31:22.187Z,54.96
2023-04-18T18:33:50.542Z,55.00
2023-04-18T18:36:19.860Z,54.99
2023-04-18T18:38:48.298Z,55.05
2023-04-18T18:41:16.600Z,55.18
2023-04-18T18:43:45.273Z,55.17
2023-04-18T18:46:16.277Z,55.22
2023-04-18T18:48:44.705Z,55.31
2023-04-18T18:51:13.801Z,55.48
2023-04-18T18:53:42.465Z,55.42
2023-04-18T18:56:10.993Z,55.49
2023-04-18T18:58:39.966Z,55.32
2023-04-18T19:01:08.395Z,55.29
2023-04-18T19:03:37.006Z,55.46
2023-04-18T19:06:08.876Z,55.52
2023-04-18T19:08:37.232Z,55.46
2023-04-18T19:11:05.859Z,55.61
2023-04-18T19:13:34.412Z,55.63
2023-04-18T19:16:02.729Z,55.74
2023-04-18T19:18:31.062Z,55.79
2023-04-18T19:21:00.002Z,55.68
2023-04-18T19:23:29.930Z,55.65
2023-04-18T19:25:58.332Z,55.56
2023-04-18T19:28:27.091Z,55.55
2023-04-18T19:30:55.313Z,55.73
2023-04-18T19:33:24.441Z,55.76
2023-04-18T19:35:52.884Z,55.81
2023-04-18T19:38:21.279Z,55.94
2023-04-18T19:40:50.010Z,55.95
2023-04-18T19:43:18.621Z,55.93
2023-04-18T19:45:47.001Z,56.00
2023-04-18T19:48:15.412Z,55.90
2023-04-18T19:50:44.329Z,56.03
2023-04-18T19:53:12.585Z,55.91
2023-04-18T19:55:41.106Z,55.70
2023-04-18T19:58:09.633Z,55.83
2023-04-18T20:00:38.888Z,56.04
2023-04-18T20:03:10.156Z,56.08
2023-04-18T20:05:38.913Z,55.77
2023-04-18T20:08:07.569Z,55.70
2023-04-18T20:10:36.917Z,55.74
2023-04-18T20:13:06.516Z,55.71
2023-04-18T20:15:34.867Z,55.86
2023-04-18T20:18:03.481Z,55.83
2023-04-18T20:20:32.881Z,55.90
2023-04-18T20:23:01.952Z,56.05
2023-04-18T20:25:30.314Z,56.10
2023-04-18T20:27:58.882Z,56.27
2023-04-18T20:30:27.318Z,56.50
2023-04-18T20:32:55.839Z,56.64
2023-04-18T20:35:24.499Z,56.65
2023-04-18T20:37:52.794Z,56.89
2023-04-18T20:40:22.123Z,57.02
2023-04-18T20:42:51.345Z,57.15
2023-04-18T20:45:22.426Z,57.58
2023-04-18T20:47:50.818Z,57.61
2023-04-18T20:50:19.949Z,57.85
2023-04-18T20:52:48.509Z,58.02
2023-04-18T20:55:17.160Z,58.28
2023-04-18T20:57:45.563Z,58.65
2023-04-18T21:00:14.436Z,58.63
2023-04-18T21:02:44.442Z,58.51
2023-04-18T21:05:13.192Z,58.83
2023-04-18T21:07:42.220Z,58.85
2023-04-18T21:10:11.967Z,59.37
2023-04-18T21:12:40.374Z,59.23
2023-04-18T21:15:10.613Z,59.19
2023-04-18T21:17:39.033Z,59.19
2023-04-18T21:20:10.000Z,59.45
2023-04-18T21:22:38.327Z,59.49
2023-04-18T21:25:08.606Z,59.69
2023-04-18T21:27:37.168Z,59.83
2023-04-18T21:30:08.301Z,59.95
2023-04-18T21:32:36.611Z,60.02
2023-04-18T21:35:06.305Z,60.09
2023-04-18T21:37:34.875Z,60.11
2023-04-18T21:40:03.928Z,60.12
2023-04-18T21:42:34.504Z,60.11
2023-04-18T21:45:03.958Z,60.54
2023-04-18T21:47:33.455Z,60.32
2023-04-18T21:50:02.657Z,60.48
2023-04-18T21:52:31.085Z,60.31
2023-04-18T21:54:59.532Z,60.50
2023-04-18T21:57:28.001Z,60.49
2023-04-18T21:59:57.598Z,60.42
2023-04-18T22:02:27.467Z,60.68
2023-04-18T22:04:56.574Z,60.31
2023-04-18T22:07:25.042Z,60.54
2023-04-18T22:09:53.387Z,60.90
2023-04-18T22:12:21.802Z,60.87
2023-04-18T22:14:52.239Z,60.81
2023-04-18T22:17:21.365Z,60.87
2023-04-18T22:19:50.124Z,61.28
2023-04-18T22:22:18.467Z,61.25
2023-04-18T22:24:47.845Z,61.36
2023-04-18T22:27:16.968Z,61.45
2023-04-18T22:29:45.493Z,62.29
2023-04-18T22:32:14.078Z,62.08
2023-04-18T22:34:44.197Z,61.94
2023-04-18T22:37:12.596Z,62.22
2023-04-18T22:39:40.976Z,62.15
2023-04-18T22:42:09.326Z,62.04
2023-04-18T22:44:37.867Z,62.35
2023-04-18T22:47:07.522Z,62.71
2023-04-18T22:49:36.002Z,62.71
2023-04-18T22:52:05.644Z,64.14
2023-04-18T22:54:34.256Z,63.75
2023-04-18T22:57:02.876Z,63.83
2023-04-18T22:59:31.274Z,63.86
2023-04-18T23:01:59.979Z,64.96
2023-04-18T23:04:30.311Z,64.47
2023-04-18T23:06:58.876Z,64.28
2023-04-18T23:09:27.364Z,64.18
2023-04-18T23:11:56.079Z,64.14
2023-04-18T23:14:24.428Z,64.34
2023-04-18T23:16:52.911Z,64.67
2023-04-18T23:19:21.238Z,65.08
2023-04-18T23:21:49.954Z,64.77
2023-04-18T23:24:18.306Z,64.45
2023-04-18T23:26:46.863Z,64.46
2023-04-18T23:29:15.401Z,64.72
2023-04-18T23:31:43.946Z,65.13
2023-04-18T23:34:12.563Z,65.16
2023-04-18T23:36:41.824Z,66.04
2023-04-18T23:39:10.233Z,66.56
2023-04-18T23:41:39.116Z,66.72
2023-04-18T23:44:07.513Z,66.72
2023-04-18T23:46:36.698Z,66.70
2023-04-18T23:49:05.610Z,66.88
2023-04-18T23:51:34.290Z,67.44
2023-04-18T23:54:02.559Z,67.49
2023-04-18T23:56:31.222Z,67.72
2023-04-18T23:59:00.332Z,68.01
